Flight Track Log - Related Links

Times and Time Zones

All times are in EDT time to prevent confusion due to time zone crossing. See the JIA2342 flight status page for this flight to view local times or setup timezone preferences in your user account.

Time Position Orientation Groundspeed Altitude Reporting Facility
EDT Latitude Longitude Course Direction KTS MPH feet Rate Location/Type
Tue 07:40:18 PM 38.8667 -77.0500 90° East 163 188 1,200  Level Potomac TRACON
Tue 07:41:18 PM 38.9000 -77.1000 311° West 194 223 2,900 1,750 Climbing Potomac TRACON
Tue 07:42:00 PM 38.9782 -76.6602 57° Northeast  Level FlightAware Approximate
Tue 07:42:18 PM 38.9500 -77.1333 333° Northwest 209 241 4,700  Level Potomac TRACON
Tue 07:43:00 PM 39.0271 -76.5355 67° East  Level FlightAware Approximate
Tue 07:43:18 PM 39.0167 -77.1500 349° North 265 305 6,600  Level Potomac TRACON
Tue 07:44:00 PM 39.0764 -76.4106 61° Northeast  Level FlightAware Approximate
Tue 07:44:18 PM 39.1000 -77.1167 17° North 289 333 8,900  Level Potomac TRACON
Tue 07:45:00 PM 39.1167 -76.2837 90° East  Level FlightAware Approximate
Tue 07:45:19 PM 39.1167 -77.0167 78° East 313 360 11,300  Level Potomac TRACON
Tue 07:47:31 PM 39.1203 -76.7742 89° East 312 359 15,200 1,642 Climbing Washington Center
Tue 07:48:29 PM 39.1275 -76.6486 86° East 323 372 16,500 1,361 Climbing Washington Center
Tue 07:49:30 PM 39.1350 -76.5203 86° East 343 395 17,900 1,230 Climbing Washington Center
Tue 07:50:31 PM 39.1422 -76.3892 86° East 356 410 19,000 793 Climbing Washington Center
Tue 07:51:31 PM 39.1242 -76.2578 100° East 361 415 19,500 500 Climbing Washington Center
Tue 07:52:31 PM 39.0975 -76.1425 107° East 367 422 20,000 252 Climbing Washington Center
Tue 07:53:30 PM 39.1064 -76.0169 85° East 349 402 20,000 504 Level Washington Center
Tue 07:54:30 PM 39.1714 -75.9103 52° Northeast 333 383 21,000 950 Climbing Washington Center
Tue 07:55:30 PM 39.2444 -75.8114 46° Northeast 349 402 21,900 843 Climbing Washington Center
Tue 07:56:31 PM 39.3239 -75.7097 45° Northeast 378 435 22,700 787 Climbing Washington Center
Tue 07:57:32 PM 39.4053 -75.6050 45° Northeast 394 453 23,500 807 Climbing Washington Center
Tue 07:58:30 PM 39.4886 -75.5003 44° Northeast 404 465 24,300 807 Climbing Washington Center
Tue 07:59:31 PM 39.5717 -75.3922 45° Northeast 404 465 25,100 673 Climbing Washington Center
Tue 08:01:55 PM 39.7689 -75.1136 47° Northeast 422 486 26,600 618 Climbing New York Center
Tue 08:02:55 PM 39.8500 -74.9997 47° Northeast 430 495 27,200 694 Climbing New York Center
Tue 08:03:56 PM 39.9364 -74.8589 51° Northeast 438 504 28,000 706 Climbing New York Center
Tue 08:04:54 PM 40.0094 -74.7303 53° Northeast 438 504 28,600 504 Climbing New York Center
Tue 08:05:55 PM 40.0839 -74.6233 48° Northeast 444 511 29,000 197 Climbing New York Center
Tue 08:06:56 PM 40.2106 -74.5733 17° North 425 489 29,000  Level New York Center
Tue 08:07:55 PM 40.3350 -74.5311 14° North 437 503 29,000  Level New York Center
Tue 08:08:55 PM 40.4592 -74.4944 13° North 442 509 29,000  Level New York Center
Tue 08:09:56 PM 40.5853 -74.4603 12° North 447 514 29,000 -266 Level New York Center
Tue 08:11:33 PM 40.7786 -74.3997 13° North 472 543 28,300 -688 Descending Boston Center
Tue 08:12:33 PM 40.9208 -74.3656 10° North 472 543 27,200 -650 Descending Boston Center
Tue 08:13:33 PM 41.0528 -74.3283 12° North 472 543 27,000 -100 Descending Boston Center
Tue 08:14:33 PM 41.1786 -74.2906 13° North 472 543 27,000 -100 Level Boston Center
Tue 08:15:33 PM 41.3022 -74.2472 15° North 467 537 26,800 -800 Descending Boston Center
Tue 08:16:33 PM 41.4278 -74.2092 13° North 461 531 25,400 -1,750 Descending Boston Center
Tue 08:17:33 PM 41.5536 -74.1711 13° North 461 531 23,300 -2,050 Descending Boston Center
Tue 08:18:33 PM 41.6708 -74.1353 13° North 449 517 21,300 -2,000 Descending Boston Center
Tue 08:19:33 PM 41.7756 -74.1047 12° North 419 482 19,300 -2,250 Descending Boston Center
Tue 08:20:33 PM 41.8467 -74.0844 12° North 377 434 16,800 -3,211 Descending Boston Center
Tue 08:21:27 PM 41.9658 -74.0511 12° North 350 403 13,200 -2,900 Descending Boston Center
Tue 08:22:33 PM 42.0622 -74.0200 13° North 326 375 11,000 -1,039 Descending Boston Center
Tue 08:23:34 PM 42.1417 -73.9942 14° North 297 342 11,000 -393 Level Boston Center
Tue 08:24:35 PM 42.2297 -73.9653 14° North 302 348 10,200 -1,289 Descending Boston Center
Tue 08:25:35 PM 42.3050 -73.9364 16° North 284 327 8,400 -1,736 Descending Boston Center
Tue 08:26:36 PM 42.3783 -73.9072 16° North 271 312 6,700 -1,722 Descending Boston Center
Tue 08:27:30 PM 42.4433 -73.8833 15° North 260 299 5,100 -1,774 Descending Boston Center
Tue 08:28:31 PM 42.5103 -73.8567 16° North 252 290 3,300 -1,033 Descending Boston Center
Tue 08:29:32 PM 42.5753 -73.8328 15° North 238 274 3,000 -446 Descending Boston Center
Tue 08:30:32 PM 42.6214 -73.8114 19° North 164 189 2,400 -645 Descending Boston Center
Tue 08:31:33 PM 42.6653 -73.8011 10° North 150 173 1,700 -738 Descending Boston Center
Tue 08:32:34 PM 42.7069 -73.8047 356° North 143 165 900 8,938 Descending Boston Center
Tue 08:33:09 PM 42.7511 -73.7661 33° Northeast 197 227 16,000 9,537 Climbing Boston Center
Tue 08:34:09 PM 42.8139 -73.7419 16° North 197 227 16,000  Level Boston Center
Tue 08:35:09 PM 42.8558 -73.7258 16° North 197 227 16,000  Level Boston Center

Login

Don't have an account? Register now (free) for customized features, flight alerts, and more!